Time;durP1;ratioP1;P1;durP2;ratioP2;P2;SDS_P1;SDS_P2;PMS_P1;PMS_P2;Temp;Humidity;BMP_temperature;BMP_pressure;BME280_temperature;BME280_humidity;BME280_pressure;Samples;Min_cycle;Max_cycle;Signal;HPM_P1;HPM_P2
2021/10/18 00:00:17;;;;;;;156.85;82.00;;;256.20;1920.00;;;;;;4938556;29;20079;-74
2021/10/18 00:02:43;;;;;;;173.57;86.40;;;256.10;1920.00;;;;;;4938254;29;20031;-74
2021/10/18 00:05:13;;;;;;;183.40;93.07;;;256.10;1894.40;;;;;;4938205;29;20075;-75
2021/10/18 00:07:39;;;;;;;174.82;91.88;;;256.00;1894.40;;;;;;4938170;29;20058;-76
2021/10/18 00:10:06;;;;;;;151.45;83.72;;;256.00;1894.40;;;;;;4938290;29;20052;-76
2021/10/18 00:12:32;;;;;;;135.98;71.38;;;256.00;1920.00;;;;;;4921269;29;20040;-79
2021/10/18 00:14:58;;;;;;;119.72;64.57;;;231.30;1920.00;;;;;;4937827;29;20040;-78
2021/10/18 00:17:24;;;;;;;113.95;58.58;;;256.00;1894.40;;;;;;4938005;29;20450;-79
2021/10/18 00:19:50;;;;;;;108.20;61.88;;;231.30;1920.00;;;;;;4938364;29;20032;-79
2021/10/18 00:22:16;;;;;;;100.30;55.22;;;231.30;1920.00;;;;;;4920252;29;20032;-79
2021/10/18 00:24:42;;;;;;;79.82;46.38;;;231.30;1920.00;;;;;;4920974;29;20080;-79
2021/10/18 00:27:07;;;;;;;85.72;48.42;;;231.30;1920.00;;;;;;4936886;29;20063;-78
2021/10/18 00:29:33;;;;;;;74.35;41.10;;;231.30;1920.00;;;;;;4937118;29;20434;-79
2021/10/18 00:31:59;;;;;;;76.10;41.33;;;231.30;1920.00;;;;;;4938085;29;20039;-80
2021/10/18 00:34:25;;;;;;;70.90;40.30;;;231.30;1920.00;;;;;;4920684;29;20047;-76
2021/10/18 00:36:50;;;;;;;68.30;39.30;;;231.30;1920.00;;;;;;4937504;29;20394;-77
2021/10/18 00:39:16;;;;;;;69.15;41.45;;;231.30;1920.00;;;;;;4937689;29;20462;-74
2021/10/18 00:41:42;;;;;;;66.78;38.70;;;231.30;1920.00;;;;;;4936806;29;20039;-75
2021/10/18 00:44:08;;;;;;;67.53;37.60;;;231.20;1920.00;;;;;;4936228;29;20272;-74
2021/10/18 00:46:34;;;;;;;54.92;33.95;;;231.20;1920.00;;;;;;4936787;29;20065;-73
2021/10/18 00:49:00;;;;;;;55.28;34.67;;;231.20;1920.00;;;;;;4937760;29;20118;-74
2021/10/18 00:51:28;;;;;;;55.97;33.55;;;231.20;1920.00;;;;;;4936853;29;20118;-76
2021/10/18 00:53:56;;;;;;;58.90;33.60;;;231.00;1920.00;;;;;;4937546;29;20189;-75
2021/10/18 00:56:22;;;;;;;60.08;33.20;;;231.20;1945.60;;;;;;4937546;29;20051;-72
2021/10/18 00:58:50;;;;;;;55.40;33.55;;;231.20;1920.00;;;;;;4937370;29;20484;-71
2021/10/18 01:01:16;;;;;;;54.10;33.03;;;231.10;1920.00;;;;;;4937586;29;20434;-70
2021/10/18 01:03:43;;;;;;;51.08;31.35;;;231.10;1920.00;;;;;;4937245;29;20027;-70
2021/10/18 01:06:08;;;;;;;56.00;32.78;;;231.10;1920.00;;;;;;4937134;29;20075;-71
2021/10/18 01:08:34;;;;;;;63.05;37.15;;;231.10;1920.00;;;;;;4936673;29;20090;-74
2021/10/18 01:11:00;;;;;;;59.80;35.58;;;231.10;1920.00;;;;;;4936427;29;20028;-74
2021/10/18 01:13:26;;;;;;;59.88;34.40;;;231.10;1920.00;;;;;;4937296;29;20028;-76
2021/10/18 01:15:53;;;;;;;57.58;35.88;;;231.10;1920.00;;;;;;4936802;29;20040;-77
2021/10/18 01:18:19;;;;;;;62.72;36.53;;;231.00;1920.00;;;;;;4936315;29;20031;-72
2021/10/18 01:20:45;;;;;;;64.07;36.65;;;231.00;1894.40;;;;;;4935885;29;20047;-73
2021/10/18 01:23:11;;;;;;;64.90;37.95;;;231.00;1920.00;;;;;;4936365;29;20023;-74
2021/10/18 01:25:41;;;;;;;62.15;37.47;;;231.00;1920.00;;;;;;4936219;29;20052;-73
2021/10/18 01:28:07;;;;;;;62.60;37.33;;;230.90;1894.40;;;;;;4931547;29;20035;-77
2021/10/18 01:30:33;;;;;;;68.22;38.88;;;230.90;1894.40;;;;;;4936134;29;20486;-73
2021/10/18 01:32:59;;;;;;;65.13;39.70;;;230.90;1894.40;;;;;;4936820;29;20039;-77
2021/10/18 01:35:25;;;;;;;64.45;39.88;;;230.90;1894.40;;;;;;4935956;29;20169;-74
2021/10/18 01:37:51;;;;;;;79.80;40.08;;;230.90;1894.40;;;;;;4931501;29;20055;-74
2021/10/18 01:40:20;;;;;;;67.05;38.83;;;230.80;1894.40;;;;;;4919696;29;20516;-77
2021/10/18 01:42:45;;;;;;;70.40;41.42;;;230.90;1920.00;;;;;;4937130;29;20070;-76
2021/10/18 01:45:14;;;;;;;80.35;44.55;;;230.80;1920.00;;;;;;4930167;29;20070;-75
2021/10/18 01:47:40;;;;;;;88.40;47.58;;;230.80;1920.00;;;;;;4929449;29;20032;-75
2021/10/18 01:50:11;;;;;;;85.60;46.53;;;230.80;1894.40;;;;;;4936653;29;20051;-74
2021/10/18 01:52:38;;;;;;;78.90;45.08;;;230.70;1894.40;;;;;;4936439;29;20058;-74
2021/10/18 01:55:05;;;;;;;78.25;44.55;;;230.70;1894.40;;;;;;4936471;29;20035;-74
2021/10/18 01:57:31;;;;;;;87.20;46.97;;;230.70;1894.40;;;;;;4936564;29;20039;-74
2021/10/18 01:59:57;;;;;;;80.47;43.55;;;230.70;1920.00;;;;;;4936557;29;20450;-74
2021/10/18 02:02:24;;;;;;;79.20;45.10;;;230.70;1894.40;;;;;;4936390;29;20031;-74
2021/10/18 02:04:49;;;;;;;81.50;45.58;;;230.70;1894.40;;;;;;4919216;29;20043;-74
2021/10/18 02:07:15;;;;;;;79.25;46.25;;;230.70;1894.40;;;;;;4935990;29;20115;-74
2021/10/18 02:09:41;;;;;;;73.75;44.25;;;230.70;1920.00;;;;;;4936523;29;20054;-74
2021/10/18 02:12:07;;;;;;;73.53;44.38;;;230.60;1894.40;;;;;;4936433;29;20556;-78
2021/10/18 02:14:32;;;;;;;81.93;45.13;;;230.60;1894.40;;;;;;4936418;29;20032;-74
2021/10/18 02:16:58;;;;;;;71.53;43.42;;;230.50;1894.40;;;;;;4936260;29;20513;-74
2021/10/18 02:19:24;;;;;;;68.43;40.15;;;230.50;1894.40;;;;;;4940313;29;20490;-76
2021/10/18 02:21:49;;;;;;;71.18;39.10;;;230.50;1894.40;;;;;;4940215;29;20035;-75
2021/10/18 02:24:15;;;;;;;67.18;37.47;;;230.40;1894.40;;;;;;4939981;29;20114;-76
2021/10/18 02:26:41;;;;;;;66.68;37.67;;;230.40;1894.40;;;;;;4922742;29;20054;-76
2021/10/18 02:29:09;;;;;;;66.55;36.55;;;230.40;1894.40;;;;;;4940263;29;20123;-76
2021/10/18 02:31:35;;;;;;;65.18;37.53;;;230.40;1894.40;;;;;;4940192;29;20095;-76
2021/10/18 02:34:01;;;;;;;55.35;34.15;;;230.40;1894.40;;;;;;4940168;29;20046;-77
2021/10/18 02:36:27;;;;;;;61.47;35.03;;;230.40;1894.40;;;;;;4939984;29;20039;-78
2021/10/18 02:38:52;;;;;;;51.10;31.88;;;230.40;1920.00;;;;;;4940092;29;20470;-73
2021/10/18 02:41:18;;;;;;;57.05;33.95;;;205.70;1920.00;;;;;;4922674;29;20470;-74
2021/10/18 02:43:44;;;;;;;50.08;30.73;;;205.70;1894.40;;;;;;4922613;29;20044;-74
2021/10/18 02:46:09;;;;;;;52.28;31.60;;;205.70;1894.40;;;;;;4939287;29;20146;-74
2021/10/18 02:48:35;;;;;;;51.65;31.95;;;205.70;1894.40;;;;;;4939680;29;20044;-76
2021/10/18 02:51:01;;;;;;;52.55;29.13;;;205.70;1894.40;;;;;;4939229;29;20095;-76
2021/10/18 02:53:27;;;;;;;43.65;27.67;;;205.70;1868.80;;;;;;4939671;29;20474;-77
2021/10/18 02:55:52;;;;;;;52.10;28.35;;;205.60;1894.40;;;;;;4939482;29;20390;-74
2021/10/18 02:58:18;;;;;;;48.97;27.25;;;205.60;1894.40;;;;;;4939627;29;20072;-78
2021/10/18 03:00:44;;;;;;;48.60;27.45;;;205.60;1894.40;;;;;;4939567;29;20028;-83
2021/10/18 03:03:10;;;;;;;56.78;28.33;;;205.50;1894.40;;;;;;4941896;29;20028;-76
2021/10/18 03:05:36;;;;;;;49.03;28.27;;;205.50;1920.00;;;;;;4940159;29;20489;-83
2021/10/18 03:11:23;;;;;;;51.60;28.08;;;205.50;1920.00;;;;;;4939853;29;20393;-76
2021/10/18 03:13:49;;;;;;;45.92;28.17;;;205.50;1920.00;;;;;;4939480;29;20039;-82
2021/10/18 03:16:15;;;;;;;46.55;27.85;;;205.40;1920.00;;;;;;4939468;29;20059;-74
2021/10/18 03:18:40;;;;;;;44.15;27.20;;;205.40;1920.00;;;;;;4939401;29;20050;-81
2021/10/18 03:21:06;;;;;;;51.38;27.67;;;205.40;1894.40;;;;;;4938809;29;20506;-68
2021/10/18 03:23:32;;;;;;;49.60;27.67;;;205.40;1920.00;;;;;;4939240;29;20047;-72
2021/10/18 03:25:58;;;;;;;59.83;30.83;;;205.50;1920.00;;;;;;4938860;29;20087;-83
2021/10/18 03:28:23;;;;;;;58.47;31.83;;;205.50;1920.00;;;;;;4938312;29;20040;-74
2021/10/18 03:30:49;;;;;;;49.03;28.65;;;205.60;1920.00;;;;;;4938368;29;20036;-75
2021/10/18 03:33:15;;;;;;;46.80;28.52;;;205.50;1894.40;;;;;;4938839;29;20035;-76
2021/10/18 03:35:41;;;;;;;51.45;28.92;;;205.50;1920.00;;;;;;4939099;29;20040;-74
2021/10/18 03:38:07;;;;;;;49.53;27.25;;;205.50;1894.40;;;;;;4921020;29;20398;-74
2021/10/18 03:40:32;;;;;;;47.72;26.73;;;205.40;1894.40;;;;;;4938945;29;20040;-77
2021/10/18 03:42:58;;;;;;;52.50;29.70;;;205.40;1894.40;;;;;;4938934;29;20028;-76
2021/10/18 03:45:24;;;;;;;54.72;30.80;;;205.40;1894.40;;;;;;4938808;29;20079;-77
2021/10/18 03:47:50;;;;;;;53.05;28.63;;;205.30;1894.40;;;;;;4938555;29;20040;-74
2021/10/18 03:50:15;;;;;;;48.58;26.63;;;205.30;1894.40;;;;;;4938733;29;20497;-75
2021/10/18 03:52:43;;;;;;;55.63;30.52;;;205.30;1894.40;;;;;;4938237;29;20040;-74
2021/10/18 03:55:09;;;;;;;63.33;34.63;;;205.30;1894.40;;;;;;4938651;29;20042;-74
2021/10/18 03:57:34;;;;;;;66.30;35.08;;;205.30;1894.40;;;;;;4937763;29;20031;-74
2021/10/18 04:00:00;;;;;;;62.63;34.13;;;205.30;1894.40;;;;;;4938439;29;20036;-74
2021/10/18 04:02:26;;;;;;;54.90;30.70;;;205.30;1894.40;;;;;;4938419;29;20051;-74
2021/10/18 04:04:52;;;;;;;51.17;28.67;;;205.30;1894.40;;;;;;4938447;29;20043;-74
2021/10/18 04:07:18;;;;;;;52.05;26.50;;;205.30;1894.40;;;;;;4937630;29;20538;-74
2021/10/18 04:09:46;;;;;;;45.53;24.88;;;205.20;1894.40;;;;;;4921216;29;20036;-74
2021/10/18 04:12:12;;;;;;;45.63;27.20;;;205.20;1894.40;;;;;;4938085;29;20040;-75
2021/10/18 04:14:38;;;;;;;53.42;28.38;;;205.20;1894.40;;;;;;4938292;29;20032;-75
2021/10/18 04:17:04;;;;;;;50.63;27.90;;;205.20;1894.40;;;;;;4938217;29;20039;-74
2021/10/18 04:19:30;;;;;;;51.90;29.13;;;205.20;1894.40;;;;;;4938071;29;20031;-74
2021/10/18 04:21:55;;;;;;;46.58;28.52;;;205.10;1868.80;;;;;;4937934;29;20175;-75
2021/10/18 04:24:21;;;;;;;53.13;30.17;;;205.10;1894.40;;;;;;4937794;29;20044;-75
2021/10/18 04:26:47;;;;;;;52.30;30.38;;;205.10;1894.40;;;;;;4937430;29;20524;-75
2021/10/18 04:29:13;;;;;;;50.83;31.67;;;205.10;1894.40;;;;;;4938033;29;20038;-76
2021/10/18 04:31:38;;;;;;;72.80;34.35;;;205.10;1894.40;;;;;;4937632;29;20080;-80
2021/10/18 04:34:04;;;;;;;80.40;43.78;;;205.00;1894.40;;;;;;4937962;29;20031;-80
2021/10/18 04:36:30;;;;;;;111.68;58.28;;;205.00;1894.40;;;;;;4920983;29;20126;-80
2021/10/18 04:38:56;;;;;;;143.38;72.75;;;204.90;1894.40;;;;;;4938015;29;20484;-80
2021/10/18 04:41:22;;;;;;;166.57;84.50;;;205.00;1894.40;;;;;;4937686;29;20035;-74
2021/10/18 04:43:48;;;;;;;146.02;74.55;;;204.90;1894.40;;;;;;4938173;29;20466;-75
2021/10/18 04:46:14;;;;;;;114.32;62.17;;;204.90;1894.40;;;;;;4937536;29;20044;-74
2021/10/18 04:48:42;;;;;;;96.80;52.78;;;204.90;1894.40;;;;;;4937655;29;20032;-73
2021/10/18 04:51:08;;;;;;;78.97;42.92;;;204.90;1920.00;;;;;;4937367;29;20040;-74
2021/10/18 04:53:34;;;;;;;77.72;42.53;;;204.80;1920.00;;;;;;4937259;29;20095;-73
2021/10/18 04:55:59;;;;;;;71.03;38.97;;;204.80;1920.00;;;;;;4937308;29;20050;-72
2021/10/18 04:58:25;;;;;;;70.78;37.50;;;204.80;1894.40;;;;;;4937537;29;20047;-72
2021/10/18 05:00:57;;;;;;;67.05;38.80;;;204.80;1894.40;;;;;;4937320;29;20120;-72
2021/10/18 05:03:25;;;;;;;61.03;36.40;;;204.80;1920.00;;;;;;4937213;29;20032;-73
2021/10/18 05:05:52;;;;;;;59.40;34.42;;;204.80;1920.00;;;;;;4937183;29;20138;-73
2021/10/18 05:08:18;;;;;;;55.45;31.42;;;204.80;1920.00;;;;;;4937007;29;20063;-72
2021/10/18 05:10:44;;;;;;;55.80;32.38;;;204.80;1920.00;;;;;;4937259;29;20055;-71
2021/10/18 05:13:12;;;;;;;85.47;43.38;;;204.80;1920.00;;;;;;4937211;29;20034;-71
2021/10/18 05:15:37;;;;;;;81.30;41.88;;;180.10;1920.00;;;;;;4937080;29;20066;-74
2021/10/18 05:18:04;;;;;;;98.57;46.65;;;180.00;1920.00;;;;;;4937043;29;20056;-72
2021/10/18 05:20:31;;;;;;;77.65;44.22;;;180.00;1920.00;;;;;;4936843;29;20521;-72
2021/10/18 05:22:58;;;;;;;89.78;44.83;;;180.00;1945.60;;;;;;4936718;29;20035;-75
2021/10/18 05:25:24;;;;;;;116.38;53.38;;;179.90;1945.60;;;;;;4936343;29;20521;-74
2021/10/18 05:27:50;;;;;;;107.03;50.17;;;180.00;1945.60;;;;;;4936404;29;20092;-72
2021/10/18 05:30:19;;;;;;;140.98;64.60;;;180.00;1945.60;;;;;;4918005;29;20494;-71
2021/10/18 05:32:46;;;;;;;200.07;85.10;;;180.00;1945.60;;;;;;4936528;29;20035;-81
2021/10/18 05:35:12;;;;;;;170.60;76.75;;;180.00;1945.60;;;;;;4936166;29;20478;-80
2021/10/18 05:37:45;;;;;;;180.57;78.65;;;179.90;1945.60;;;;;;4935240;29;20055;-75
2021/10/18 05:40:13;;;;;;;174.50;79.05;;;180.00;1945.60;;;;;;4936606;29;20027;-80
2021/10/18 05:42:39;;;;;;;175.18;77.32;;;180.00;1945.60;;;;;;4936283;29;20031;-82
2021/10/18 05:45:06;;;;;;;159.30;71.70;;;179.90;1971.20;;;;;;4936316;29;20047;-79
2021/10/18 05:47:31;;;;;;;107.45;51.80;;;179.90;1971.20;;;;;;4915388;29;20061;-81
2021/10/18 05:49:59;;;;;;;95.70;48.08;;;179.90;1971.20;;;;;;4904879;29;20473;-81
2021/10/18 05:53:05;;;;;;;108.93;56.97;;;180.00;1971.20;;;;;;4918402;29;20043;-82
2021/10/18 05:55:31;;;;;;;138.82;70.07;;;180.00;1971.20;;;;;;4929195;29;20115;-81
2021/10/18 05:58:00;;;;;;;154.52;71.30;;;180.00;1996.80;;;;;;4935914;29;20064;-79
2021/10/18 06:00:27;;;;;;;160.38;81.95;;;180.10;1996.80;;;;;;4922419;29;20504;-81
2021/10/18 06:02:53;;;;;;;191.80;97.20;;;180.10;1996.80;;;;;;4935964;29;20055;-81
2021/10/18 06:05:20;;;;;;;198.13;92.63;;;180.10;2022.40;;;;;;4935994;29;20039;-81
2021/10/18 06:07:46;;;;;;;143.32;71.18;;;180.10;1996.80;;;;;;4925584;29;20032;-76
2021/10/18 06:10:15;;;;;;;94.38;48.65;;;204.80;1996.80;;;;;;4930103;29;20515;-74
2021/10/18 06:12:41;;;;;;;73.03;42.00;;;204.80;1996.80;;;;;;4934780;29;20482;-75
2021/10/18 06:15:07;;;;;;;67.45;39.67;;;204.90;1996.80;;;;;;4925955;29;20095;-75
2021/10/18 06:17:33;;;;;;;70.00;39.72;;;204.90;1996.80;;;;;;4920297;29;20039;-74
2021/10/18 06:19:59;;;;;;;83.60;41.88;;;205.00;2022.40;;;;;;4909008;29;20484;-74
2021/10/18 06:22:26;;;;;;;196.98;78.10;;;205.00;2022.40;;;;;;4934356;29;20036;-73
2021/10/18 06:24:52;;;;;;;180.13;75.63;;;205.10;2022.40;;;;;;4917530;29;20043;-74
2021/10/18 06:27:18;;;;;;;167.32;69.65;;;205.10;2048.00;;;;;;4929769;29;20040;-75
2021/10/18 06:29:45;;;;;;;133.70;55.17;;;205.20;2022.40;;;;;;4932705;29;20040;-75
2021/10/18 06:32:10;;;;;;;133.80;55.53;;;205.30;2022.40;;;;;;4925489;29;20039;-75
2021/10/18 06:34:36;;;;;;;149.23;58.65;;;205.30;2048.00;;;;;;4930214;29;20394;-83
2021/10/18 06:37:02;;;;;;;125.38;51.03;;;205.30;2022.40;;;;;;4906148;29;20162;-81
2021/10/18 06:39:27;;;;;;;114.50;47.72;;;205.40;2022.40;;;;;;4916650;29;20035;-83
2021/10/18 06:41:53;;;;;;;115.70;46.13;;;205.40;2048.00;;;;;;4916708;29;20035;-81
2021/10/18 06:44:19;;;;;;;119.40;50.78;;;205.50;2022.40;;;;;;4932090;29;20047;-83
2021/10/18 06:46:45;;;;;;;112.13;48.30;;;205.50;2048.00;;;;;;4936617;29;20051;-80
2021/10/18 06:49:10;;;;;;;104.43;45.42;;;205.60;2022.40;;;;;;4936285;29;20032;-75
2021/10/18 06:51:44;;;;;;;93.50;41.65;;;205.70;2022.40;;;;;;4936094;29;20034;-71
2021/10/18 06:54:12;;;;;;;95.00;41.20;;;205.70;2048.00;;;;;;4935908;29;20028;-67
2021/10/18 06:56:43;;;;;;;225.95;48.53;;;230.50;2022.40;;;;;;4935631;29;20036;-75
2021/10/18 06:59:12;;;;;;;125.50;46.03;;;230.60;2022.40;;;;;;4934805;29;20048;-77
2021/10/18 07:01:39;;;;;;;92.57;43.88;;;230.70;2022.40;;;;;;4936111;29;20040;-80
2021/10/18 07:04:05;;;;;;;136.32;46.50;;;230.80;2048.00;;;;;;4938218;29;20039;-79
2021/10/18 07:06:31;;;;;;;108.50;46.38;;;230.90;2022.40;;;;;;4936361;29;20035;-80
2021/10/18 07:08:57;;;;;;;124.82;47.72;;;230.90;2022.40;;;;;;4932869;29;20097;-77
2021/10/18 07:11:25;;;;;;;136.70;48.20;;;231.00;2048.00;;;;;;4922504;29;20485;-78
2021/10/18 07:13:50;;;;;;;98.93;46.55;;;231.10;2048.00;;;;;;4921633;29;20059;-79
2021/10/18 07:16:16;;;;;;;94.20;51.05;;;231.20;2022.40;;;;;;4939238;29;20086;-75
2021/10/18 07:18:43;;;;;;;94.45;50.28;;;231.20;1996.80;;;;;;4921010;29;20550;-73
2021/10/18 07:21:09;;;;;;;104.60;53.50;;;231.30;2022.40;;;;;;4938360;29;20474;-72
2021/10/18 07:23:35;;;;;;;125.00;55.08;;;231.30;2022.40;;;;;;4938999;29;20036;-75
2021/10/18 07:26:03;;;;;;;103.30;57.28;;;256.00;2022.40;;;;;;4938847;29;20131;-74
2021/10/18 07:28:29;;;;;;;119.75;55.65;;;256.20;2048.00;;;;;;4922346;29;20378;-72
2021/10/18 07:30:57;;;;;;;123.38;59.65;;;256.30;1996.80;;;;;;4937675;29;20482;-68
2021/10/18 07:33:23;;;;;;;377.88;71.22;;;256.40;1996.80;;;;;;4938522;29;20042;-69
2021/10/18 07:35:48;;;;;;;287.92;73.28;;;256.50;1996.80;;;;;;4938996;29;20401;-70
2021/10/18 07:38:14;;;;;;;289.50;69.35;;;256.60;1996.80;;;;;;4938019;29;20554;-72
2021/10/18 07:40:40;;;;;;;232.90;70.82;;;256.70;1971.20;;;;;;4938623;29;20114;-67
2021/10/18 07:43:07;;;;;;;213.55;64.70;;;256.90;1971.20;;;;;;4937130;29;20363;-68
2021/10/18 07:45:33;;;;;;;157.15;64.05;;;281.60;1996.80;;;;;;4936108;29;20039;-70
2021/10/18 07:47:59;;;;;;;120.35;59.35;;;281.70;1996.80;;;;;;4938233;29;20061;-69
2021/10/18 07:50:25;;;;;;;139.65;60.90;;;281.80;1996.80;;;;;;4938633;29;20036;-73
2021/10/18 07:52:51;;;;;;;137.05;59.40;;;282.00;1971.20;;;;;;4938013;29;20066;-70
2021/10/18 07:55:20;;;;;;;115.80;58.97;;;282.10;1945.60;;;;;;4938575;29;20103;-68
2021/10/18 07:57:48;;;;;;;110.00;57.97;;;282.20;1945.60;;;;;;4937948;29;20549;-67
2021/10/18 08:00:15;;;;;;;110.22;59.70;;;282.30;1945.60;;;;;;4921581;29;20478;-69
2021/10/18 08:02:41;;;;;;;100.45;54.83;;;282.40;1920.00;;;;;;4936392;29;20087;-68
2021/10/18 08:05:08;;;;;;;99.25;53.05;;;282.50;1920.00;;;;;;4936027;29;20055;-68
2021/10/18 08:07:40;;;;;;;92.15;54.60;;;307.20;1920.00;;;;;;4937879;29;20512;-72
2021/10/18 08:10:07;;;;;;;93.07;54.58;;;307.30;1920.00;;;;;;4937373;29;20458;-72
2021/10/18 08:12:37;;;;;;;90.45;52.42;;;307.50;1894.40;;;;;;4937468;29;20040;-71
2021/10/18 08:15:03;;;;;;;96.53;53.47;;;307.60;1894.40;;;;;;4937715;29;20056;-66
2021/10/18 08:17:29;;;;;;;88.22;52.78;;;307.80;1894.40;;;;;;4938417;29;20032;-74
2021/10/18 08:19:55;;;;;;;86.35;51.60;;;307.90;1894.40;;;;;;4938141;29;20038;-70
2021/10/18 08:22:21;;;;;;;92.43;51.45;;;308.00;1920.00;;;;;;4938086;29;20405;-71
2021/10/18 08:24:47;;;;;;;92.53;52.95;;;332.80;1971.20;;;;;;4937758;29;20047;-65
2021/10/18 08:27:12;;;;;;;94.80;52.42;;;332.90;1920.00;;;;;;4938273;29;20099;-65
2021/10/18 08:29:38;;;;;;;96.65;52.80;;;333.00;1894.40;;;;;;4935559;29;20063;-66
2021/10/18 08:32:04;;;;;;;83.03;51.83;;;333.10;1868.80;;;;;;4937598;29;20111;-66
2021/10/18 08:34:30;;;;;;;91.53;53.13;;;333.30;1868.80;;;;;;4938026;29;20417;-68
2021/10/18 08:36:55;;;;;;;81.70;51.08;;;333.30;1894.40;;;;;;4937336;29;20108;-75
2021/10/18 08:42:11;;;;;;;81.70;47.10;;;333.60;1868.80;;;;;;4937928;29;20545;-66
2021/10/18 08:44:37;;;;;;;71.38;41.38;;;333.70;1843.20;;;;;;4937291;29;20439;-67
2021/10/18 08:47:02;;;;;;;77.93;43.13;;;358.40;1817.60;;;;;;4937282;29;20055;-74
2021/10/18 08:49:29;;;;;;;66.93;38.03;;;358.50;1817.60;;;;;;4936518;29;20059;-66
2021/10/18 08:51:56;;;;;;;59.40;34.63;;;358.60;1792.00;;;;;;4937181;29;20036;-66
2021/10/18 08:54:22;;;;;;;57.85;33.90;;;358.70;1766.40;;;;;;4937593;29;20031;-67
2021/10/18 08:56:48;;;;;;;54.08;34.00;;;358.80;1740.80;;;;;;4937241;29;20501;-66
2021/10/18 08:59:16;;;;;;;44.72;29.60;;;358.80;1740.80;;;;;;4936782;29;20036;-67
2021/10/18 09:01:47;;;;;;;50.67;29.70;;;358.90;1766.40;;;;;;4937426;29;20039;-73
2021/10/18 09:04:16;;;;;;;46.88;27.05;;;359.00;1740.80;;;;;;4937136;29;20123;-68
2021/10/18 09:06:46;;;;;;;36.75;24.95;;;359.10;1740.80;;;;;;4936434;29;20043;-67
2021/10/18 09:09:12;;;;;;;36.17;23.33;;;359.10;1715.20;;;;;;4919760;29;20047;-70
2021/10/18 09:11:38;;;;;;;34.08;21.25;;;359.20;1715.20;;;;;;4937295;29;20026;-69
2021/10/18 09:14:05;;;;;;;28.45;18.02;;;359.30;1715.20;;;;;;4936679;29;20521;-70
2021/10/18 09:16:35;;;;;;;27.02;15.82;;;384.00;1664.00;;;;;;4919441;29;20047;-68
2021/10/18 09:19:05;;;;;;;22.52;14.52;;;384.10;1664.00;;;;;;4936841;29;20553;-74
2021/10/18 09:21:34;;;;;;;22.67;14.02;;;384.10;1664.00;;;;;;4936581;29;20095;-67
2021/10/18 09:24:01;;;;;;;18.27;13.55;;;384.20;1638.40;;;;;;4936643;29;20040;-68
2021/10/18 09:26:28;;;;;;;24.23;13.20;;;384.20;1638.40;;;;;;4936219;29;20059;-67
2021/10/18 09:28:55;;;;;;;19.08;11.65;;;384.40;1638.40;;;;;;4935984;29;20036;-70
2021/10/18 09:31:22;;;;;;;18.80;10.55;;;384.40;1638.40;;;;;;4936708;29;20043;-69
2021/10/18 09:33:56;;;;;;;14.95;10.40;;;384.50;1587.20;;;;;;4936823;29;20039;-67
2021/10/18 09:36:29;;;;;;;15.82;10.90;;;384.60;1587.20;;;;;;4936528;29;20039;-68
2021/10/18 09:39:24;;;;;;;17.67;10.30;;;384.70;1561.60;;;;;;4936659;29;20031;-65
2021/10/18 09:41:58;;;;;;;;;;;384.70;1536.00;;;;;;4937064;29;20039;-64
2021/10/18 09:44:41;;;;;;;20.30;12.68;;;384.70;1536.00;;;;;;4935774;29;19906;-64
2021/10/18 10:52:47;;;;;;;40.80;9.23;;;435.30;1484.80;;;;;;4938022;29;20051;-60
2021/10/18 10:55:39;;;;;;;14.00;7.38;;;435.30;1459.20;;;;;;4939756;29;20074;-66
2021/10/18 10:58:32;;;;;;;16.77;7.80;;;435.30;1433.60;;;;;;4935473;29;20043;-65
2021/10/18 11:00:58;;;;;;;15.90;7.47;;;435.30;1459.20;;;;;;4938885;29;20118;-61
2021/10/18 11:03:30;;;;;;;14.13;7.63;;;435.30;1459.20;;;;;;4938784;29;20115;-64
2021/10/18 11:06:02;;;;;;;12.13;6.40;;;435.40;1459.20;;;;;;4938584;29;20055;-65
2021/10/18 11:08:40;;;;;;;22.33;7.32;;;435.40;1433.60;;;;;;4939297;29;20042;-61
2021/10/18 11:11:21;;;;;;;16.00;6.90;;;435.40;1484.80;;;;;;4939231;29;20118;-61
2021/10/18 11:13:54;;;;;;;24.67;6.78;;;435.40;1459.20;;;;;;4938959;29;20031;-63
2021/10/18 11:16:31;;;;;;;23.50;7.37;;;435.40;1459.20;;;;;;4937035;29;20512;-67
2021/10/18 11:18:59;;;;;;;22.40;6.43;;;435.30;1459.20;;;;;;4932163;29;20516;-64
2021/10/18 11:21:33;;;;;;;14.05;7.20;;;435.30;1459.20;;;;;;4937704;29;20040;-61
2021/10/18 11:24:08;;;;;;;;;;;435.30;1459.20;;;;;;4934476;29;20032;-66
2021/10/18 11:26:37;;;;;;;25.67;9.23;;;435.40;1561.60;;;;;;4919474;29;20600;-60
2021/10/18 11:29:08;;;;;;;22.83;9.20;;;435.40;1484.80;;;;;;4919421;29;20471;-61
2021/10/18 11:31:41;;;;;;;63.35;11.05;;;435.40;1459.20;;;;;;4919722;29;20486;-65
2021/10/18 11:34:12;;;;;;;24.85;10.13;;;435.50;1459.20;;;;;;4918297;29;20135;-59
2021/10/18 11:36:43;;;;;;;15.70;7.47;;;435.50;1433.60;;;;;;4918443;29;20069;-60
2021/10/18 11:39:22;;;;;;;17.70;6.85;;;435.60;1408.00;;;;;;4917076;29;20048;-59
2021/10/18 11:41:59;;;;;;;14.05;7.03;;;435.70;1382.40;;;;;;4917861;29;20032;-70
2021/10/18 11:44:50;;;;;;;13.20;6.43;;;435.70;1408.00;;;;;;4915426;29;20039;-72
2021/10/18 11:47:36;;;;;;;12.30;6.35;;;435.70;1382.40;;;;;;4903363;29;20418;-71
2021/10/18 11:50:15;;;;;;;18.67;7.25;;;435.70;1382.40;;;;;;4895939;29;20035;-74
2021/10/18 11:53:08;;;;;;;11.95;6.90;;;435.70;1382.40;;;;;;4914373;29;20043;-73
2021/10/18 11:55:37;;;;;;;11.85;7.10;;;435.70;1408.00;;;;;;4900327;29;20047;-76
2021/10/18 11:58:05;;;;;;;10.32;6.93;;;435.80;1382.40;;;;;;4912229;29;20111;-74
2021/10/18 12:00:41;;;;;;;17.25;7.55;;;435.80;1356.80;;;;;;4915039;29;20032;-73
2021/10/18 12:03:09;;;;;;;10.48;6.35;;;435.90;1331.20;;;;;;4917821;29;20502;-76
2021/10/18 12:05:49;;;;;;;11.32;6.20;;;435.90;1356.80;;;;;;4916741;29;20076;-73
2021/10/18 12:08:17;;;;;;;11.75;5.85;;;436.00;1382.40;;;;;;4917272;29;20047;-71
2021/10/18 12:10:46;;;;;;;34.28;8.73;;;436.00;1356.80;;;;;;4912860;29;20135;-70
2021/10/18 12:13:23;;;;;;;45.83;8.00;;;436.00;1408.00;;;;;;4891308;29;20131;-72
2021/10/18 12:16:04;;;;;;;20.30;7.18;;;436.00;1382.40;;;;;;4902837;29;20040;-72
2021/10/18 12:18:42;;;;;;;14.52;5.95;;;436.00;1356.80;;;;;;4909650;29;20036;-72
2021/10/18 12:21:14;;;;;;;12.23;6.00;;;436.00;1356.80;;;;;;4914088;29;20075;-69
2021/10/18 12:23:47;;;;;;;9.00;5.13;;;436.00;1408.00;;;;;;4914453;29;20095;-69
2021/10/18 12:26:33;;;;;;;7.30;5.40;;;436.00;1382.40;;;;;;4932843;29;20052;-69
2021/10/18 12:29:13;;;;;;;8.68;5.95;;;436.00;1331.20;;;;;;4918517;29;20123;-70
2021/10/18 12:31:49;;;;;;;10.90;6.30;;;436.10;1331.20;;;;;;4935599;29;20399;-69
2021/10/18 12:34:24;;;;;;;8.70;5.10;;;436.10;1331.20;;;;;;4929154;29;20039;-70
2021/10/18 12:37:00;;;;;;;11.18;5.35;;;436.10;1331.20;;;;;;4932167;29;20115;-69
2021/10/18 12:39:35;;;;;;;13.00;5.88;;;436.10;1331.20;;;;;;4933200;29;20485;-69
2021/10/18 12:42:02;;;;;;;10.55;5.32;;;460.80;1382.40;;;;;;4911399;29;20088;-69
2021/10/18 12:44:32;;;;;;;14.52;6.68;;;460.80;1408.00;;;;;;4917788;29;20123;-69
2021/10/18 12:46:58;;;;;;;14.23;8.65;;;460.80;1382.40;;;;;;4929292;29;20155;-69
2021/10/18 12:49:34;;;;;;;16.58;8.20;;;460.80;1356.80;;;;;;4934764;29;20126;-70
2021/10/18 12:52:04;;;;;;;18.30;8.52;;;436.10;1331.20;;;;;;4937233;29;20031;-70
2021/10/18 12:54:44;;;;;;;12.18;6.38;;;436.00;1356.80;;;;;;4936138;29;20087;-71
2021/10/18 12:57:12;;;;;;;39.20;8.52;;;436.00;1356.80;;;;;;4914183;29;20063;-69
2021/10/18 13:00:00;;;;;;;31.52;7.30;;;435.90;1382.40;;;;;;4927530;29;20044;-70
2021/10/18 13:02:29;;;;;;;49.13;9.10;;;436.00;1356.80;;;;;;4936157;29;20046;-70
2021/10/18 13:05:14;;;;;;;26.25;8.50;;;435.90;1382.40;;;;;;4936868;29;20091;-69
2021/10/18 13:07:42;;;;;;;39.80;9.55;;;435.90;1382.40;;;;;;4919856;29;20032;-70
2021/10/18 13:10:13;;;;;;;41.55;9.45;;;435.80;1408.00;;;;;;4919604;29;20485;-70
2021/10/18 13:12:39;;;;;;;21.25;7.15;;;435.70;1408.00;;;;;;4936394;29;20477;-71
2021/10/18 13:15:06;;;;;;;18.48;7.85;;;435.80;1382.40;;;;;;4936997;29;20044;-72